Time;durP1;ratioP1;P1;durP2;ratioP2;P2;SDS_P1;SDS_P2;PMS_P1;PMS_P2;Temp;Humidity;BMP_temperature;BMP_pressure;BME280_temperature;BME280_humidity;BME280_pressure;Samples;Min_cycle;Max_cycle;Signal;HPM_P1;HPM_P2
2023/06/06 04:00:45;;;;;;;6.23;4.43;;;16.00;97.30;;;;;;6004971;23;21270;31
2023/06/06 04:03:11;;;;;;;14.03;3.30;;;16.00;97.30;;;;;;4941112;29;20472;-87
2023/06/06 04:05:36;;;;;;;3.10;2.37;;;16.00;97.30;;;;;;4897051;29;20429;-83
2023/06/06 04:08:02;;;;;;;3.77;2.20;;;16.00;97.30;;;;;;4896918;29;20537;-83
2023/06/06 04:10:28;;;;;;;3.10;2.70;;;16.00;97.30;;;;;;4897883;29;20186;-86
2023/06/06 04:12:54;;;;;;;2.87;2.67;;;16.00;97.30;;;;;;4914601;29;20447;-87
2023/06/06 04:15:19;;;;;;;2.60;2.40;;;16.00;97.30;;;;;;4911020;29;20189;-87
2023/06/06 04:17:45;;;;;;;9.17;3.23;;;16.00;97.30;;;;;;4912890;29;20223;-86
2023/06/06 04:20:11;;;;;;;3.90;3.57;;;16.00;97.30;;;;;;4932910;29;20181;-86
2023/06/06 04:22:38;;;;;;;4.33;2.30;;;15.90;97.30;;;;;;4920174;29;20460;-83
2023/06/06 04:25:04;;;;;;;3.43;2.47;;;15.90;97.30;;;;;;4923973;29;20452;-86
2023/06/06 04:27:30;;;;;;;3.27;3.07;;;15.90;97.30;;;;;;4925602;29;20471;-87
2023/06/06 04:29:57;;;;;;;2.50;2.27;;;15.90;97.30;;;;;;4931582;29;20200;-86
2023/06/06 04:32:23;;;;;;;3.50;2.97;;;15.90;97.30;;;;;;4911457;29;20291;-83
2023/06/06 04:34:51;;;;;;;4.10;3.53;;;15.90;97.30;;;;;;4927320;29;20499;-86
2023/06/06 04:37:17;;;;;;;7.27;3.43;;;15.90;97.30;;;;;;4930030;29;20259;-89
2023/06/06 04:39:43;;;;;;;2.20;2.00;;;15.80;97.30;;;;;;4915502;29;20966;-87
2023/06/06 04:42:08;;;;;;;4.80;2.60;;;15.80;97.30;;;;;;4911289;29;20468;-87
2023/06/06 04:44:41;;;;;;;2.27;2.13;;;15.80;97.30;;;;;;4927872;29;20253;-87
2023/06/06 04:47:08;;;;;;;8.10;3.73;;;15.70;97.30;;;;;;4915435;29;20223;-87
2023/06/06 04:49:38;;;;;;;28.63;4.17;;;15.70;97.30;;;;;;4915559;29;20478;-84
2023/06/06 04:52:05;;;;;;;3.93;2.87;;;15.70;97.30;;;;;;4935705;29;20522;-88
2023/06/06 04:54:31;;;;;;;5.83;2.27;;;15.70;97.30;;;;;;4928468;29;20503;-85
2023/06/06 04:56:57;;;;;;;2.93;2.73;;;15.80;97.30;;;;;;4930429;29;20422;-87
2023/06/06 04:59:23;;;;;;;4.07;3.10;;;15.80;97.30;;;;;;4932142;29;20431;-85
2023/06/06 05:01:51;;;;;;;5.23;3.30;;;15.70;97.30;;;;;;4931469;29;20232;-87
2023/06/06 05:04:17;;;;;;;2.70;2.50;;;15.70;97.30;;;;;;4914762;29;20184;-87
2023/06/06 05:06:43;;;;;;;2.70;2.50;;;15.70;97.30;;;;;;4930142;29;20428;-87
2023/06/06 05:09:08;;;;;;;2.40;2.10;;;15.70;97.30;;;;;;4931345;29;20449;-84
2023/06/06 05:11:34;;;;;;;4.80;3.50;;;15.70;97.30;;;;;;4918273;29;20817;-87
2023/06/06 05:14:00;;;;;;;3.63;2.90;;;15.70;97.30;;;;;;4906667;29;20187;-88
2023/06/06 05:16:26;;;;;;;2.27;2.10;;;15.70;97.30;;;;;;4917490;29;20416;-87
2023/06/06 05:18:52;;;;;;;3.67;2.70;;;15.60;97.30;;;;;;4909265;29;20512;-85
2023/06/06 05:21:21;;;;;;;1.73;1.50;;;15.60;97.30;;;;;;4918121;29;21066;-85
2023/06/06 05:23:47;;;;;;;2.40;2.20;;;15.70;97.30;;;;;;4911091;29;20604;-84
2023/06/06 05:26:12;;;;;;;9.17;3.03;;;15.70;97.30;;;;;;4933667;29;20524;-87
2023/06/06 05:28:39;;;;;;;4.40;2.87;;;15.70;97.30;;;;;;4918496;29;20188;-85
2023/06/06 05:31:08;;;;;;;4.50;2.87;;;15.70;97.30;;;;;;4920405;29;20228;-85
2023/06/06 05:33:43;;;;;;;4.67;2.83;;;15.70;97.30;;;;;;4911373;29;20426;-85
2023/06/06 05:36:10;;;;;;;17.93;3.77;;;15.70;97.30;;;;;;4914493;29;20435;-87
2023/06/06 05:38:35;;;;;;;14.60;3.23;;;15.70;97.30;;;;;;4915746;29;20425;-83
2023/06/06 05:41:01;;;;;;;3.03;2.90;;;15.70;97.30;;;;;;4915359;29;20463;-87
2023/06/06 05:43:28;;;;;;;5.00;3.10;;;15.70;97.30;;;;;;4916207;29;20279;-86
2023/06/06 05:45:53;;;;;;;3.00;2.10;;;15.70;97.30;;;;;;4931201;29;20193;-84
2023/06/06 05:48:18;;;;;;;2.10;1.80;;;15.70;97.30;;;;;;4916858;29;20428;-86
2023/06/06 05:50:44;;;;;;;4.47;2.33;;;15.80;97.30;;;;;;4930640;29;20264;-86
2023/06/06 05:53:10;;;;;;;2.70;2.40;;;15.80;97.30;;;;;;4917673;29;20188;-84
2023/06/06 05:55:37;;;;;;;2.93;1.70;;;15.80;97.30;;;;;;4930665;29;20443;-84
2023/06/06 05:58:03;;;;;;;2.13;1.97;;;15.90;97.30;;;;;;4909466;29;20426;-88
2023/06/06 06:00:30;;;;;;;2.13;1.97;;;15.90;97.30;;;;;;4933443;29;20177;-88
2023/06/06 06:02:58;;;;;;;5.83;3.87;;;15.90;97.30;;;;;;4928156;29;20437;-87
2023/06/06 06:05:28;;;;;;;2.63;2.43;;;16.00;97.30;;;;;;4939960;29;20421;-86
2023/06/06 06:07:54;;;;;;;4.10;2.97;;;16.00;97.30;;;;;;4917763;29;20903;-85
2023/06/06 06:10:20;;;;;;;4.43;3.20;;;16.00;97.30;;;;;;4915971;29;20799;-86
2023/06/06 06:12:46;;;;;;;3.43;2.97;;;16.00;97.30;;;;;;4920724;29;20421;-87
2023/06/06 06:15:12;;;;;;;3.67;2.83;;;16.00;97.30;;;;;;4929410;29;21002;-83
2023/06/06 06:17:37;;;;;;;3.63;3.17;;;16.10;97.30;;;;;;4929230;29;20185;-83
2023/06/06 06:20:08;;;;;;;3.23;3.07;;;16.10;97.30;;;;;;4930112;29;20194;-87
2023/06/06 06:22:37;;;;;;;5.43;3.10;;;16.10;97.30;;;;;;4933555;29;20225;-88
2023/06/06 06:25:04;;;;;;;3.13;2.70;;;16.10;97.30;;;;;;4930357;29;20429;-88
2023/06/06 06:27:30;;;;;;;4.27;2.27;;;16.20;97.30;;;;;;4917509;29;20424;-87
2023/06/06 06:29:56;;;;;;;2.30;2.13;;;16.20;97.30;;;;;;4922926;29;20556;-84
2023/06/06 06:32:22;;;;;;;3.03;2.60;;;16.20;97.30;;;;;;4914275;29;21006;-87
2023/06/06 06:34:48;;;;;;;5.83;3.00;;;16.20;97.30;;;;;;4930970;29;20183;-84
2023/06/06 06:37:13;;;;;;;4.77;2.93;;;16.20;97.30;;;;;;4930108;29;20472;-86
2023/06/06 06:39:39;;;;;;;3.10;2.77;;;16.30;97.30;;;;;;4909388;29;20220;-86
2023/06/06 06:42:07;;;;;;;3.80;2.40;;;16.30;97.30;;;;;;4930159;29;20283;-84
2023/06/06 06:44:32;;;;;;;4.13;2.77;;;16.30;97.30;;;;;;4929480;29;20466;-87
2023/06/06 06:46:58;;;;;;;8.83;3.63;;;16.30;97.30;;;;;;4933753;29;20428;-88
2023/06/06 06:49:23;;;;;;;3.50;2.27;;;16.30;97.30;;;;;;4932732;29;20184;-83
2023/06/06 06:51:51;;;;;;;3.63;2.27;;;16.30;97.30;;;;;;4922899;29;20223;-87
2023/06/06 06:54:21;;;;;;;1.80;1.70;;;16.40;97.30;;;;;;4931001;29;20220;-87
2023/06/06 06:56:48;;;;;;;8.23;3.07;;;16.40;97.30;;;;;;4930314;29;20978;-84
2023/06/06 06:59:14;;;;;;;6.00;2.87;;;16.50;97.30;;;;;;4930622;29;20428;-83
2023/06/06 07:01:40;;;;;;;2.83;2.63;;;16.50;97.30;;;;;;4918605;29;20538;-87
2023/06/06 07:04:07;;;;;;;6.97;4.23;;;16.50;97.30;;;;;;4914169;29;20653;-87
2023/06/06 07:06:34;;;;;;;3.47;1.93;;;16.60;97.30;;;;;;4915080;29;20479;-90
2023/06/06 07:09:00;;;;;;;5.90;3.33;;;16.60;97.30;;;;;;4907639;29;20421;-87
2023/06/06 07:11:27;;;;;;;2.60;2.40;;;16.60;97.30;;;;;;4930185;29;20475;-87
2023/06/06 07:13:53;;;;;;;4.70;3.50;;;16.60;97.30;;;;;;4917035;29;20489;-84
2023/06/06 07:16:18;;;;;;;3.33;2.03;;;16.60;97.30;;;;;;4918173;29;20432;-84
2023/06/06 07:18:47;;;;;;;2.73;2.53;;;16.60;97.30;;;;;;4948649;29;20258;-85
2023/06/06 07:21:12;;;;;;;2.50;2.30;;;16.70;97.30;;;;;;4942597;29;20531;-84
2023/06/06 07:23:39;;;;;;;2.80;2.23;;;16.70;97.30;;;;;;4930187;29;20462;-85
2023/06/06 07:26:06;;;;;;;3.07;2.87;;;16.70;97.30;;;;;;4941491;29;20279;-87
2023/06/06 07:28:32;;;;;;;3.00;2.83;;;16.80;97.30;;;;;;4935769;29;20518;-86
2023/06/06 07:30:58;;;;;;;2.97;2.77;;;16.80;97.30;;;;;;4942178;29;20460;-86
2023/06/06 07:33:24;;;;;;;4.20;3.33;;;16.80;97.30;;;;;;4931486;29;20893;-85
2023/06/06 07:35:49;;;;;;;4.53;3.27;;;16.80;97.30;;;;;;4936803;29;20180;-84
2023/06/06 07:38:15;;;;;;;3.37;3.00;;;16.90;97.30;;;;;;4928492;29;20184;-84
2023/06/06 07:40:41;;;;;;;3.80;3.00;;;16.90;97.30;;;;;;4940153;29;20275;-86
2023/06/06 07:43:07;;;;;;;4.53;2.57;;;16.90;97.30;;;;;;4943904;29;20191;-84
2023/06/06 07:45:33;;;;;;;3.30;2.60;;;17.00;97.30;;;;;;4942746;29;20291;-87
2023/06/06 07:47:58;;;;;;;6.70;3.03;;;17.00;97.30;;;;;;4916055;29;20424;-84
2023/06/06 07:50:26;;;;;;;11.83;3.80;;;17.10;97.30;;;;;;4930574;29;21340;-84
2023/06/06 07:52:52;;;;;;;5.83;3.53;;;17.10;97.30;;;;;;4925798;29;20590;-83
2023/06/06 07:55:17;;;;;;;2.43;2.10;;;17.20;97.30;;;;;;4947266;29;20454;-87
2023/06/06 07:57:45;;;;;;;4.90;4.10;;;17.20;97.30;;;;;;4922928;29;20187;-84
2023/06/06 08:00:12;;;;;;;2.83;2.63;;;17.30;97.30;;;;;;4936638;29;20181;-84
2023/06/06 08:02:39;;;;;;;2.83;2.70;;;17.30;97.30;;;;;;4944044;29;20467;-85
2023/06/06 08:05:05;;;;;;;2.50;2.20;;;17.30;97.30;;;;;;4944393;29;20437;-88
2023/06/06 08:07:33;;;;;;;4.50;3.20;;;17.30;97.30;;;;;;4952114;28;20790;-85
2023/06/06 08:09:59;;;;;;;2.53;2.27;;;17.40;97.30;;;;;;4937449;29;20425;-91
2023/06/06 08:12:25;;;;;;;2.60;2.30;;;17.40;97.30;;;;;;4947497;28;20475;-91
2023/06/06 08:14:51;;;;;;;7.00;3.43;;;17.40;97.30;;;;;;4941093;29;20184;-90
2023/06/06 08:17:16;;;;;;;4.93;2.60;;;17.40;97.30;;;;;;4928899;29;20922;-90
2023/06/06 08:19:41;;;;;;;3.87;2.77;;;17.50;97.30;;;;;;4923747;29;20191;-86
2023/06/06 08:22:07;;;;;;;6.07;3.40;;;17.50;97.30;;;;;;4939327;28;20213;-93
2023/06/06 08:24:32;;;;;;;11.90;3.30;;;17.50;97.30;;;;;;4953874;28;20192;-90
2023/06/06 08:26:58;;;;;;;3.47;2.47;;;17.50;97.30;;;;;;4947225;29;20172;-93
2023/06/06 08:29:24;;;;;;;4.40;2.50;;;17.50;97.30;;;;;;4938027;29;20203;-90
2023/06/06 08:31:53;;;;;;;3.47;3.23;;;17.60;97.30;;;;;;4925551;29;20216;-87
2023/06/06 08:34:19;;;;;;;3.70;2.63;;;17.50;97.30;;;;;;4932123;29;20189;-88
2023/06/06 08:36:46;;;;;;;3.80;3.20;;;17.50;97.30;;;;;;4925165;29;20977;-87
2023/06/06 08:39:11;;;;;;;4.73;3.30;;;17.50;97.30;;;;;;4917693;29;20626;-91
2023/06/06 08:41:42;;;;;;;5.90;2.73;;;17.60;97.30;;;;;;4938526;29;20539;-89
2023/06/06 08:44:07;;;;;;;3.20;2.43;;;17.60;97.30;;;;;;4929531;29;20188;-88
2023/06/06 08:46:33;;;;;;;3.83;3.17;;;17.60;97.30;;;;;;4944729;29;20809;-89
2023/06/06 08:49:06;;;;;;;3.50;2.73;;;17.70;97.30;;;;;;4918405;29;20675;-89
2023/06/06 08:51:32;;;;;;;5.40;3.53;;;17.80;97.30;;;;;;4914507;29;21005;-89
2023/06/06 08:54:02;;;;;;;2.70;2.50;;;17.90;97.30;;;;;;4929600;29;20733;-88
2023/06/06 08:56:27;;;;;;;5.10;2.63;;;18.00;97.30;;;;;;4914436;29;20219;-90
2023/06/06 08:58:53;;;;;;;4.67;3.43;;;18.00;97.30;;;;;;4913686;29;20509;-89
2023/06/06 09:01:20;;;;;;;5.93;3.70;;;18.10;97.30;;;;;;4915019;29;20285;-87
2023/06/06 09:03:48;;;;;;;2.70;2.20;;;18.10;97.30;;;;;;4930308;29;20184;-91
2023/06/06 09:06:16;;;;;;;2.57;2.40;;;18.20;97.30;;;;;;4912110;29;20440;-87
2023/06/06 09:08:43;;;;;;;14.33;3.13;;;18.20;97.30;;;;;;4929884;29;20822;-88
2023/06/06 09:11:08;;;;;;;11.40;3.33;;;18.20;97.30;;;;;;4915455;29;20480;-90
2023/06/06 09:13:34;;;;;;;3.73;3.37;;;18.30;97.30;;;;;;4930076;29;20455;-87
2023/06/06 09:16:03;;;;;;;7.90;3.10;;;18.30;97.30;;;;;;4911808;29;20181;-88
2023/06/06 09:18:28;;;;;;;4.80;4.23;;;18.30;97.30;;;;;;4940779;29;20184;-88
2023/06/06 09:20:54;;;;;;;3.40;3.20;;;18.40;97.30;;;;;;4925728;29;20831;-92
2023/06/06 09:23:20;;;;;;;5.07;3.47;;;18.40;97.30;;;;;;4914050;29;20234;-88
2023/06/06 09:25:47;;;;;;;6.23;3.30;;;18.50;97.30;;;;;;4911802;29;20205;-91
2023/06/06 09:28:13;;;;;;;3.87;2.63;;;18.50;97.30;;;;;;4912946;29;20269;-90
2023/06/06 09:30:39;;;;;;;3.23;2.30;;;18.40;97.30;;;;;;4917859;29;20975;-88
2023/06/06 09:33:05;;;;;;;4.30;4.00;;;18.50;97.30;;;;;;4926930;29;20944;-89
2023/06/06 09:35:36;;;;;;;4.90;3.57;;;18.50;97.30;;;;;;4913305;29;20184;-88
2023/06/06 09:38:13;;;;;;;13.53;3.37;;;18.60;97.30;;;;;;4914639;29;20417;-92
2023/06/06 09:40:44;;;;;;;3.23;2.33;;;18.70;97.30;;;;;;4906920;29;20873;-89
2023/06/06 09:43:13;;;;;;;13.73;4.17;;;18.70;97.30;;;;;;4926655;29;20966;-90
2023/06/06 09:45:50;;;;;;;6.23;3.37;;;18.70;97.30;;;;;;4906975;29;20424;-91
2023/06/06 09:48:22;;;;;;;3.00;2.80;;;18.80;97.30;;;;;;4912005;29;20421;-88
2023/06/06 09:50:48;;;;;;;5.10;3.57;;;18.90;97.30;;;;;;4936651;29;20567;-93
2023/06/06 09:53:14;;;;;;;3.93;3.20;;;19.00;97.30;;;;;;4925743;29;20520;-93
2023/06/06 09:55:41;;;;;;;3.23;3.03;;;19.10;97.30;;;;;;4914539;29;20428;-89
2023/06/06 09:58:13;;;;;;;4.10;2.63;;;19.10;97.30;;;;;;4926635;29;20429;-91
2023/06/06 10:00:38;;;;;;;5.57;2.97;;;19.20;97.30;;;;;;4912782;29;20437;-88
2023/06/06 10:03:06;;;;;;;3.40;2.63;;;19.30;97.30;;;;;;4907421;29;20418;-92
2023/06/06 10:05:32;;;;;;;7.27;3.50;;;19.30;97.30;;;;;;4914123;29;20826;-89
2023/06/06 10:07:58;;;;;;;4.80;3.97;;;19.40;97.30;;;;;;4925371;29;20495;-93
2023/06/06 10:10:24;;;;;;;3.67;2.53;;;19.40;97.30;;;;;;4928928;29;20192;-90
2023/06/06 10:12:53;;;;;;;8.00;3.73;;;19.30;97.30;;;;;;4910723;29;20564;-89
2023/06/06 10:15:22;;;;;;;4.60;3.30;;;19.30;97.30;;;;;;4936793;29;20421;-89
2023/06/06 10:17:50;;;;;;;8.20;3.50;;;19.30;97.30;;;;;;4913766;29;20492;-90
2023/06/06 10:20:16;;;;;;;4.77;2.20;;;19.30;97.30;;;;;;4924533;29;20420;-90
2023/06/06 10:22:42;;;;;;;8.43;3.00;;;19.40;97.30;;;;;;4926053;29;20465;-89
2023/06/06 10:25:16;;;;;;;3.67;2.70;;;19.40;97.30;;;;;;4926267;29;20421;-86
2023/06/06 10:27:58;;;;;;;2.87;2.70;;;19.40;97.30;;;;;;4936810;29;20240;-90
2023/06/06 10:30:41;;;;;;;3.60;3.33;;;19.40;97.30;;;;;;4912873;29;20511;-90
2023/06/06 10:33:37;;;;;;;5.90;3.37;;;19.40;97.30;;;;;;4926051;29;20437;-92
2023/06/06 10:36:04;;;;;;;3.60;2.70;;;19.50;97.30;;;;;;4925629;29;20468;-87
2023/06/06 10:38:34;;;;;;;6.70;2.77;;;19.50;97.30;;;;;;4929468;29;20417;-87
2023/06/06 10:40:59;;;;;;;5.70;2.77;;;19.50;97.30;;;;;;4929897;29;20462;-88
2023/06/06 10:43:34;;;;;;;2.80;2.60;;;19.60;97.30;;;;;;4921692;29;20520;-90
2023/06/06 10:46:02;;;;;;;3.60;3.23;;;19.60;97.30;;;;;;4909855;29;20293;-89
2023/06/06 10:48:53;;;;;;;9.33;3.30;;;19.60;97.30;;;;;;4910054;29;20421;-88
2023/06/06 10:51:36;;;;;;;2.57;2.30;;;19.60;97.30;;;;;;4910394;29;20480;-88
2023/06/06 10:54:15;;;;;;;4.90;3.40;;;19.60;97.30;;;;;;4925560;29;20803;-90
2023/06/06 10:56:44;;;;;;;7.07;3.83;;;19.70;97.30;;;;;;4933818;29;20421;-88
2023/06/06 10:59:10;;;;;;;5.83;3.87;;;19.70;97.30;;;;;;4926575;29;20423;-88
2023/06/06 11:01:36;;;;;;;9.30;3.83;;;19.60;97.30;;;;;;4912372;29;20456;-88
2023/06/06 11:04:16;;;;;;;4.33;3.17;;;19.60;97.30;;;;;;4924178;29;20432;-90
2023/06/06 11:06:42;;;;;;;3.03;2.63;;;19.60;97.30;;;;;;4911567;29;20175;-88
2023/06/06 11:09:28;;;;;;;4.50;3.00;;;19.60;97.30;;;;;;4924536;29;20814;-88
2023/06/06 11:12:15;;;;;;;3.37;2.60;;;19.60;97.30;;;;;;4909870;29;20259;-90
2023/06/06 11:14:55;;;;;;;6.83;3.60;;;19.70;97.30;;;;;;4908601;29;20416;-91
2023/06/06 11:17:27;;;;;;;3.60;2.53;;;19.70;97.30;;;;;;4926266;29;20417;-88
2023/06/06 11:19:55;;;;;;;6.87;4.73;;;19.70;97.30;;;;;;4912163;29;20915;-88
2023/06/06 11:22:25;;;;;;;4.00;3.83;;;19.70;97.30;;;;;;4928621;29;20452;-90
2023/06/06 11:24:51;;;;;;;2.13;1.97;;;19.70;97.30;;;;;;4914151;29;20412;-88
2023/06/06 11:27:17;;;;;;;4.60;3.80;;;19.80;97.30;;;;;;4925936;29;20425;-87
2023/06/06 11:29:45;;;;;;;3.77;2.70;;;19.70;97.30;;;;;;4902495;29;20512;-87
2023/06/06 11:32:12;;;;;;;3.40;3.20;;;19.80;97.30;;;;;;4906505;29;20480;-91
2023/06/06 11:34:38;;;;;;;6.93;4.30;;;19.80;97.30;;;;;;4913703;29;20461;-91
2023/06/06 11:37:06;;;;;;;7.87;4.43;;;19.80;97.30;;;;;;4928277;29;20421;-92
2023/06/06 11:39:32;;;;;;;6.40;4.00;;;19.80;97.30;;;;;;4932202;29;20427;-92
2023/06/06 11:41:58;;;;;;;10.33;4.77;;;19.80;97.30;;;;;;4914917;29;20452;-92
2023/06/06 11:44:32;;;;;;;2.90;2.57;;;19.80;97.30;;;;;;4927141;29;20185;-91
2023/06/06 11:47:02;;;;;;;6.73;4.10;;;19.80;97.30;;;;;;4914770;29;20436;-91
2023/06/06 11:49:28;;;;;;;4.20;3.93;;;19.80;97.30;;;;;;4917696;29;20471;-92
2023/06/06 11:51:59;;;;;;;7.63;4.43;;;19.80;97.30;;;;;;4920187;29;20564;-92
2023/06/06 11:54:27;;;;;;;6.20;3.50;;;19.80;97.30;;;;;;4912407;29;21251;-91
2023/06/06 11:56:54;;;;;;;3.30;3.10;;;19.80;97.30;;;;;;4916718;29;21140;-91
2023/06/06 11:59:23;;;;;;;7.13;4.20;;;19.80;97.30;;;;;;4917971;29;20420;-92
2023/06/06 12:01:52;;;;;;;3.10;2.87;;;19.80;97.30;;;;;;4917303;29;20479;-91
2023/06/06 12:04:21;;;;;;;5.77;4.30;;;19.80;97.30;;;;;;4930155;29;20425;-89
2023/06/06 12:06:48;;;;;;;4.80;3.43;;;19.70;97.30;;;;;;4916082;29;20432;-91
2023/06/06 12:09:16;;;;;;;5.77;3.30;;;19.70;97.30;;;;;;4930526;29;20432;-92
2023/06/06 12:11:55;;;;;;;3.10;2.90;;;19.60;97.30;;;;;;4914753;29;20495;-90
2023/06/06 12:14:22;;;;;;;9.07;4.47;;;19.60;97.30;;;;;;4937135;29;20429;-92
2023/06/06 12:16:48;;;;;;;3.00;2.83;;;19.60;97.30;;;;;;4913614;29;20527;-90
2023/06/06 12:19:14;;;;;;;4.27;3.20;;;19.60;97.30;;;;;;4911324;29;20441;-91
2023/06/06 12:21:48;;;;;;;2.93;2.73;;;19.60;97.30;;;;;;4918794;29;20216;-91
2023/06/06 12:24:21;;;;;;;4.17;3.87;;;19.60;97.30;;;;;;4930504;29;20429;-91
2023/06/06 12:27:02;;;;;;;4.37;3.53;;;19.60;97.30;;;;;;4944324;29;20439;-92
2023/06/06 12:29:33;;;;;;;4.83;4.53;;;19.60;97.30;;;;;;4915223;29;20804;-91
2023/06/06 12:32:19;;;;;;;3.70;2.53;;;19.70;97.30;;;;;;4915291;29;20983;-87
2023/06/06 12:34:53;;;;;;;4.13;3.50;;;19.80;97.30;;;;;;4909897;29;20467;-91
2023/06/06 12:37:19;;;;;;;5.90;4.20;;;19.80;97.30;;;;;;4916975;29;20447;-90
2023/06/06 12:39:45;;;;;;;9.10;5.20;;;19.80;97.30;;;;;;4926668;29;20465;-91
2023/06/06 12:42:16;;;;;;;4.13;3.07;;;19.90;97.30;;;;;;4945670;29;20594;-92
2023/06/06 12:44:42;;;;;;;4.00;3.27;;;19.90;97.30;;;;;;4932941;29;20516;-91
2023/06/06 12:47:12;;;;;;;3.70;3.47;;;20.00;97.30;;;;;;4917839;29;20513;-92
2023/06/06 12:49:39;;;;;;;4.27;3.60;;;20.00;97.30;;;;;;4934343;29;20429;-92
2023/06/06 12:52:05;;;;;;;4.27;3.00;;;20.00;97.30;;;;;;4932144;29;20998;-91
2023/06/06 12:54:34;;;;;;;3.50;3.33;;;20.00;97.30;;;;;;4942185;29;20418;-94
2023/06/06 12:56:59;;;;;;;4.13;3.20;;;20.00;97.30;;;;;;4939925;29;20468;-93
2023/06/06 12:59:26;;;;;;;3.83;3.00;;;20.00;97.30;;;;;;4939904;29;20524;-94
2023/06/06 13:01:54;;;;;;;6.77;3.83;;;20.10;97.30;;;;;;4929698;29;20251;-91
2023/06/06 13:04:20;;;;;;;3.50;2.80;;;20.10;97.30;;;;;;4931361;29;20636;-89
2023/06/06 13:06:46;;;;;;;4.10;3.37;;;20.10;97.30;;;;;;4936493;29;20444;-92
2023/06/06 13:09:14;;;;;;;8.10;4.40;;;20.20;97.30;;;;;;4940360;29;20673;-93
2023/06/06 13:11:42;;;;;;;5.23;4.93;;;20.20;97.30;;;;;;4932280;29;20219;-87
2023/06/06 13:14:08;;;;;;;9.23;3.93;;;20.20;97.30;;;;;;4928305;29;20453;-93
2023/06/06 13:16:34;;;;;;;2.90;2.70;;;20.20;97.30;;;;;;4914570;29;20764;-90
2023/06/06 13:19:02;;;;;;;4.90;4.63;;;20.20;97.30;;;;;;4928299;29;20441;-89
2023/06/06 13:21:35;;;;;;;3.87;3.00;;;20.20;97.30;;;;;;4914368;29;20208;-87
2023/06/06 13:24:00;;;;;;;1.93;1.83;;;20.30;97.30;;;;;;4908157;29;21082;-87
2023/06/06 13:26:26;;;;;;;5.40;4.43;;;20.30;97.30;;;;;;4918281;29;20444;-89
2023/06/06 13:28:51;;;;;;;7.40;3.67;;;20.30;97.30;;;;;;4914343;29;20276;-87
2023/06/06 13:31:25;;;;;;;4.90;3.83;;;20.30;97.30;;;;;;4914665;29;20272;-87
2023/06/06 13:33:52;;;;;;;5.03;2.20;;;20.30;97.30;;;;;;4907840;29;20663;-87
2023/06/06 13:36:18;;;;;;;2.47;2.27;;;20.40;97.30;;;;;;4914585;29;20723;-87
2023/06/06 13:38:45;;;;;;;3.40;3.20;;;20.40;97.30;;;;;;4908987;29;20412;-90
2023/06/06 13:41:11;;;;;;;3.10;2.90;;;20.40;97.30;;;;;;4930382;29;20358;-88
2023/06/06 13:43:44;;;;;;;5.10;3.00;;;20.40;97.30;;;;;;4928394;29;20433;-90
2023/06/06 13:46:09;;;;;;;10.90;3.70;;;20.50;97.30;;;;;;4939226;28;20476;-88
2023/06/06 13:48:35;;;;;;;5.50;3.13;;;20.50;97.30;;;;;;4906255;29;20437;-91
2023/06/06 13:51:03;;;;;;;3.10;2.90;;;20.50;97.30;;;;;;4925754;29;20268;-88
2023/06/06 13:53:31;;;;;;;4.33;3.00;;;20.60;97.30;;;;;;4910592;29;20196;-91
2023/06/06 13:56:04;;;;;;;5.90;2.57;;;20.60;97.30;;;;;;4929004;29;20457;-91
2023/06/06 13:58:39;;;;;;;3.83;2.57;;;20.60;97.30;;;;;;4937386;29;20413;-89
2023/06/06 14:01:05;;;;;;;3.53;3.33;;;20.60;97.30;;;;;;4931609;29;20491;-90
2023/06/06 14:03:34;;;;;;;4.60;2.90;;;20.70;97.30;;;;;;4930728;29;20936;-91
2023/06/06 14:06:02;;;;;;;6.03;3.87;;;20.80;97.30;;;;;;4929124;29;20240;-89
2023/06/06 14:08:35;;;;;;;3.13;2.93;;;20.80;97.20;;;;;;4913457;29;20869;-87
2023/06/06 14:11:03;;;;;;;5.67;3.77;;;20.90;97.20;;;;;;4915593;29;20649;-88
2023/06/06 14:13:31;;;;;;;4.40;3.40;;;21.00;97.00;;;;;;4912328;29;20439;-90
2023/06/06 14:15:58;;;;;;;5.47;3.63;;;21.10;97.00;;;;;;4931077;29;20417;-88
2023/06/06 14:18:24;;;;;;;4.57;4.20;;;21.20;96.70;;;;;;4898859;29;21011;-87
2023/06/06 14:20:59;;;;;;;2.77;2.57;;;21.30;96.80;;;;;;4928773;29;20444;-87
2023/06/06 14:23:26;;;;;;;3.57;3.40;;;21.30;96.00;;;;;;4913310;29;20180;-88
2023/06/06 14:25:51;;;;;;;3.97;3.77;;;21.30;95.80;;;;;;4926345;29;20425;-90
2023/06/06 14:28:18;;;;;;;4.30;3.90;;;21.30;95.50;;;;;;4911241;29;20463;-88
2023/06/06 14:30:44;;;;;;;6.23;3.93;;;21.30;95.50;;;;;;4913605;29;20291;-89
2023/06/06 14:33:09;;;;;;;5.83;3.67;;;21.20;95.60;;;;;;4925593;29;20504;-90
2023/06/06 14:35:35;;;;;;;7.67;4.63;;;21.10;95.70;;;;;;4927282;29;20498;-91
2023/06/06 14:38:01;;;;;;;3.93;3.77;;;21.10;96.10;;;;;;4913697;29;20185;-88
2023/06/06 14:40:28;;;;;;;3.13;2.80;;;21.10;96.30;;;;;;4921120;29;20185;-90
2023/06/06 14:42:54;;;;;;;5.63;2.93;;;21.00;96.20;;;;;;4934772;29;20193;-88
2023/06/06 14:45:19;;;;;;;5.67;3.30;;;21.00;96.30;;;;;;4941222;29;20432;-91
2023/06/06 14:47:45;;;;;;;3.23;2.87;;;21.00;96.10;;;;;;4924680;29;20196;-89
2023/06/06 14:50:11;;;;;;;3.47;2.57;;;21.00;96.10;;;;;;4925887;29;20179;-90
2023/06/06 14:52:36;;;;;;;13.27;4.40;;;20.90;95.80;;;;;;4924581;29;20770;-88
2023/06/06 14:55:02;;;;;;;9.07;4.17;;;20.90;96.00;;;;;;4925632;29;20187;-88
2023/06/06 14:57:30;;;;;;;2.53;2.33;;;20.80;96.20;;;;;;4918230;29;20628;-93
2023/06/06 14:59:55;;;;;;;4.40;3.37;;;20.80;96.40;;;;;;4941337;29;20682;-88
2023/06/06 15:02:23;;;;;;;7.63;3.60;;;20.70;96.60;;;;;;4925573;29;20480;-91
2023/06/06 15:04:50;;;;;;;3.30;3.10;;;20.70;96.70;;;;;;4937209;29;20191;-89
2023/06/06 15:07:15;;;;;;;5.17;4.10;;;20.60;96.80;;;;;;4928255;29;20439;-89
2023/06/06 15:09:41;;;;;;;4.33;3.67;;;20.50;96.90;;;;;;4913606;29;20432;-88
2023/06/06 15:12:11;;;;;;;4.97;3.33;;;20.50;97.30;;;;;;4928617;29;20218;-87
2023/06/06 15:14:38;;;;;;;3.60;3.27;;;20.50;97.30;;;;;;4927522;29;20427;-91
2023/06/06 15:17:04;;;;;;;7.67;3.90;;;20.50;97.30;;;;;;4911804;29;20421;-90
2023/06/06 15:19:31;;;;;;;7.00;3.90;;;20.50;97.30;;;;;;4910371;29;20485;-91
2023/06/06 15:22:00;;;;;;;2.47;2.10;;;20.50;97.30;;;;;;4918211;29;20252;-91
2023/06/06 15:24:28;;;;;;;3.70;3.50;;;20.60;97.30;;;;;;4936609;29;20994;-93
2023/06/06 15:26:59;;;;;;;6.30;4.63;;;20.70;97.30;;;;;;4909261;29;20672;-89
2023/06/06 15:29:25;;;;;;;10.23;2.73;;;20.70;97.30;;;;;;4928128;29;20416;-86
2023/06/06 15:31:53;;;;;;;7.13;4.30;;;20.80;97.30;;;;;;4931232;29;20464;-86
2023/06/06 15:34:18;;;;;;;4.53;3.00;;;20.90;97.30;;;;;;4916702;29;20423;-88
2023/06/06 15:36:44;;;;;;;6.47;3.40;;;20.90;97.30;;;;;;4906816;29;20852;-89
2023/06/06 15:39:10;;;;;;;3.77;3.13;;;21.00;97.30;;;;;;4913277;29;20181;-87
2023/06/06 15:41:35;;;;;;;5.97;3.67;;;21.00;97.30;;;;;;4930582;29;20205;-88
2023/06/06 15:44:01;;;;;;;6.63;3.80;;;21.10;97.30;;;;;;4913108;29;20811;-87
2023/06/06 15:46:27;;;;;;;4.90;3.03;;;21.10;97.30;;;;;;4935704;29;20672;-89
2023/06/06 15:48:53;;;;;;;5.77;3.20;;;21.00;97.30;;;;;;4934008;29;20192;-89
2023/06/06 15:51:23;;;;;;;3.40;2.80;;;21.00;97.30;;;;;;4921136;29;20342;-88
2023/06/06 15:53:56;;;;;;;7.47;4.57;;;20.90;97.10;;;;;;4926853;29;20191;-89
2023/06/06 15:56:21;;;;;;;5.60;3.90;;;20.90;97.20;;;;;;4913283;29;20515;-87
2023/06/06 15:58:49;;;;;;;3.30;3.10;;;20.80;97.20;;;;;;4915100;29;21076;-86
2023/06/06 16:01:15;;;;;;;3.60;3.27;;;20.70;97.10;;;;;;4914838;29;20267;-89
2023/06/06 16:03:40;;;;;;;2.90;2.70;;;20.50;97.30;;;;;;4914982;29;20452;-87
2023/06/06 16:06:06;;;;;;;5.30;4.53;;;20.40;97.30;;;;;;4932127;29;20208;-89
2023/06/06 16:08:31;;;;;;;3.60;2.93;;;20.30;97.30;;;;;;4916533;29;20188;-89
2023/06/06 16:10:57;;;;;;;3.67;3.33;;;20.10;97.30;;;;;;4932040;29;20291;-89
2023/06/06 16:13:22;;;;;;;4.93;3.30;;;20.00;97.30;;;;;;4915860;29;20185;-87
2023/06/06 16:15:48;;;;;;;5.83;4.63;;;19.80;97.30;;;;;;4915324;29;20184;-88
2023/06/06 16:18:14;;;;;;;5.83;4.47;;;19.70;97.30;;;;;;4925322;29;20215;-86
2023/06/06 16:20:39;;;;;;;6.77;4.67;;;19.50;97.30;;;;;;4934514;29;20710;-86
2023/06/06 16:23:05;;;;;;;6.73;4.70;;;19.40;97.30;;;;;;4944563;23;20498;-86
2023/06/06 16:25:30;;;;;;;7.23;5.10;;;19.30;97.30;;;;;;4942235;29;20176;-86
2023/06/06 16:27:56;;;;;;;6.93;4.33;;;19.20;97.30;;;;;;4935662;29;20659;-85
2023/06/06 16:30:21;;;;;;;4.40;3.17;;;19.10;97.30;;;;;;4939619;28;20219;-85
2023/06/06 16:32:47;;;;;;;7.93;4.10;;;19.00;97.30;;;;;;4932553;29;20683;-86
2023/06/06 16:35:13;;;;;;;4.93;3.93;;;18.90;97.30;;;;;;4936073;29;20458;-83
2023/06/06 16:37:38;;;;;;;4.17;3.50;;;18.90;97.30;;;;;;4923392;29;20856;-84
2023/06/06 16:40:05;;;;;;;4.53;4.03;;;18.80;97.30;;;;;;4929179;29;20433;-83
2023/06/06 16:42:30;;;;;;;6.07;4.00;;;18.80;97.30;;;;;;4926617;29;20227;-85
2023/06/06 16:44:55;;;;;;;8.40;4.60;;;18.80;97.30;;;;;;4928310;29;20479;-85
2023/06/06 16:47:21;;;;;;;5.67;5.37;;;18.70;97.30;;;;;;4929158;29;20537;-83